sensor_id;sensor_type;location;lat;lon;timestamp;temperature;humidity
18207;DHT22;9229;52.354;20.886;2022-12-18T00:03:51;-4.40;99.90
18207;DHT22;9229;52.354;20.886;2022-12-18T00:08:59;-4.40;99.90
18207;DHT22;9229;52.354;20.886;2022-12-18T00:14:03;-4.30;99.90
18207;DHT22;9229;52.354;20.886;2022-12-18T00:19:06;-4.30;99.90
18207;DHT22;9229;52.354;20.886;2022-12-18T00:24:14;-4.30;99.90
18207;DHT22;9229;52.354;20.886;2022-12-18T00:29:17;-4.30;99.90
18207;DHT22;9229;52.354;20.886;2022-12-18T00:34:22;-4.20;99.90
18207;DHT22;9229;52.354;20.886;2022-12-18T00:39:33;-4.20;99.90
18207;DHT22;9229;52.354;20.886;2022-12-18T00:44:39;-4.20;99.90
18207;DHT22;9229;52.354;20.886;2022-12-18T00:49:41;-4.20;99.90
18207;DHT22;9229;52.354;20.886;2022-12-18T00:54:48;-4.20;99.90
18207;DHT22;9229;52.354;20.886;2022-12-18T00:59:52;-4.20;99.90
18207;DHT22;9229;52.354;20.886;2022-12-18T01:04:56;-4.20;99.90
18207;DHT22;9229;52.354;20.886;2022-12-18T01:10:11;-4.30;99.90
18207;DHT22;9229;52.354;20.886;2022-12-18T01:15:18;-4.30;99.90
18207;DHT22;9229;52.354;20.886;2022-12-18T01:20:24;-4.20;99.90
18207;DHT22;9229;52.354;20.886;2022-12-18T01:25:32;-4.20;99.90
18207;DHT22;9229;52.354;20.886;2022-12-18T01:30:34;-4.20;99.90
18207;DHT22;9229;52.354;20.886;2022-12-18T01:35:41;-4.30;99.90
18207;DHT22;9229;52.354;20.886;2022-12-18T01:41:01;-4.20;99.90
18207;DHT22;9229;52.354;20.886;2022-12-18T01:46:09;-4.20;99.90
18207;DHT22;9229;52.354;20.886;2022-12-18T01:51:13;-4.20;99.90
18207;DHT22;9229;52.354;20.886;2022-12-18T01:56:19;-4.10;99.90
18207;DHT22;9229;52.354;20.886;2022-12-18T02:01:25;-4.20;99.90
18207;DHT22;9229;52.354;20.886;2022-12-18T02:06:31;-4.20;99.90
18207;DHT22;9229;52.354;20.886;2022-12-18T02:11:49;-4.20;99.90
18207;DHT22;9229;52.354;20.886;2022-12-18T02:17:03;-4.20;99.90
18207;DHT22;9229;52.354;20.886;2022-12-18T02:22:18;-4.20;99.90
18207;DHT22;9229;52.354;20.886;2022-12-18T02:27:30;-4.20;99.90
18207;DHT22;9229;52.354;20.886;2022-12-18T02:32:38;-4.30;99.90
18207;DHT22;9229;52.354;20.886;2022-12-18T02:37:44;-4.20;99.90
18207;DHT22;9229;52.354;20.886;2022-12-18T02:43:07;-4.20;99.90
18207;DHT22;9229;52.354;20.886;2022-12-18T02:48:10;-4.20;99.90
18207;DHT22;9229;52.354;20.886;2022-12-18T02:53:17;-4.30;99.90
18207;DHT22;9229;52.354;20.886;2022-12-18T02:58:32;-4.30;99.90
18207;DHT22;9229;52.354;20.886;2022-12-18T03:03:51;-4.30;99.90
18207;DHT22;9229;52.354;20.886;2022-12-18T03:08:58;-4.30;99.90
18207;DHT22;9229;52.354;20.886;2022-12-18T03:14:13;-4.30;99.90
18207;DHT22;9229;52.354;20.886;2022-12-18T03:19:24;-4.30;99.90
18207;DHT22;9229;52.354;20.886;2022-12-18T03:24:34;-4.30;99.90
18207;DHT22;9229;52.354;20.886;2022-12-18T03:29:52;-4.20;99.90
18207;DHT22;9229;52.354;20.886;2022-12-18T03:35:05;-4.30;99.90
18207;DHT22;9229;52.354;20.886;2022-12-18T03:40:12;-4.30;99.90
18207;DHT22;9229;52.354;20.886;2022-12-18T03:45:23;-4.30;99.90
18207;DHT22;9229;52.354;20.886;2022-12-18T03:50:35;-4.30;99.90
18207;DHT22;9229;52.354;20.886;2022-12-18T03:55:43;-4.30;99.90
18207;DHT22;9229;52.354;20.886;2022-12-18T04:00:56;-4.30;99.90
18207;DHT22;9229;52.354;20.886;2022-12-18T04:06:01;-4.30;99.90
18207;DHT22;9229;52.354;20.886;2022-12-18T04:11:12;-4.40;99.90
18207;DHT22;9229;52.354;20.886;2022-12-18T04:16:20;-4.40;99.90
18207;DHT22;9229;52.354;20.886;2022-12-18T04:21:27;-4.50;99.90
18207;DHT22;9229;52.354;20.886;2022-12-18T04:26:32;-4.50;99.90
18207;DHT22;9229;52.354;20.886;2022-12-18T04:32:02;-4.60;99.90
18207;DHT22;9229;52.354;20.886;2022-12-18T04:37:08;-4.70;99.90
18207;DHT22;9229;52.354;20.886;2022-12-18T04:42:13;-4.70;99.90
18207;DHT22;9229;52.354;20.886;2022-12-18T04:47:17;-4.80;99.90
18207;DHT22;9229;52.354;20.886;2022-12-18T04:52:23;-4.80;99.90
18207;DHT22;9229;52.354;20.886;2022-12-18T04:57:25;-5.00;99.90
18207;DHT22;9229;52.354;20.886;2022-12-18T05:02:32;-5.10;99.90
18207;DHT22;9229;52.354;20.886;2022-12-18T05:07:35;-5.20;99.90
18207;DHT22;9229;52.354;20.886;2022-12-18T05:12:37;-5.30;99.90
18207;DHT22;9229;52.354;20.886;2022-12-18T05:18:02;-5.40;99.90
18207;DHT22;9229;52.354;20.886;2022-12-18T05:23:07;-5.50;99.90
18207;DHT22;9229;52.354;20.886;2022-12-18T05:28:12;-5.50;99.90
18207;DHT22;9229;52.354;20.886;2022-12-18T05:33:20;-5.60;99.90
18207;DHT22;9229;52.354;20.886;2022-12-18T05:38:25;-5.60;99.90
18207;DHT22;9229;52.354;20.886;2022-12-18T05:43:34;-5.60;99.90
18207;DHT22;9229;52.354;20.886;2022-12-18T05:48:37;-5.50;99.90
18207;DHT22;9229;52.354;20.886;2022-12-18T05:53:41;-5.60;99.90
18207;DHT22;9229;52.354;20.886;2022-12-18T05:58:45;-5.60;99.90
18207;DHT22;9229;52.354;20.886;2022-12-18T06:03:52;-5.50;99.90
18207;DHT22;9229;52.354;20.886;2022-12-18T06:08:55;-5.50;99.90
18207;DHT22;9229;52.354;20.886;2022-12-18T06:14:05;-5.40;99.90
18207;DHT22;9229;52.354;20.886;2022-12-18T06:19:20;-5.30;99.90
18207;DHT22;9229;52.354;20.886;2022-12-18T06:24:22;-5.30;99.90
18207;DHT22;9229;52.354;20.886;2022-12-18T06:29:28;-5.30;99.90
18207;DHT22;9229;52.354;20.886;2022-12-18T06:34:33;-5.10;99.90
18207;DHT22;9229;52.354;20.886;2022-12-18T06:39:38;-5.20;99.90
18207;DHT22;9229;52.354;20.886;2022-12-18T06:44:44;-5.20;99.90
18207;DHT22;9229;52.354;20.886;2022-12-18T06:49:48;-5.20;99.90
18207;DHT22;9229;52.354;20.886;2022-12-18T06:54:52;-5.10;99.90
18207;DHT22;9229;52.354;20.886;2022-12-18T06:59:59;-5.00;99.90
18207;DHT22;9229;52.354;20.886;2022-12-18T07:05:06;-5.00;99.90
18207;DHT22;9229;52.354;20.886;2022-12-18T07:10:11;-5.00;99.90
18207;DHT22;9229;52.354;20.886;2022-12-18T07:15:17;-4.90;99.90
18207;DHT22;9229;52.354;20.886;2022-12-18T07:20:26;-4.90;99.90
18207;DHT22;9229;52.354;20.886;2022-12-18T07:25:30;-4.80;99.90
18207;DHT22;9229;52.354;20.886;2022-12-18T07:30:32;-4.70;99.90
18207;DHT22;9229;52.354;20.886;2022-12-18T07:35:39;-4.70;99.90
18207;DHT22;9229;52.354;20.886;2022-12-18T07:40:45;-4.70;99.90
18207;DHT22;9229;52.354;20.886;2022-12-18T07:45:49;-4.60;99.90
18207;DHT22;9229;52.354;20.886;2022-12-18T07:50:58;-4.60;99.90
18207;DHT22;9229;52.354;20.886;2022-12-18T07:56:02;-4.50;99.90
18207;DHT22;9229;52.354;20.886;2022-12-18T08:01:06;-4.50;99.90
18207;DHT22;9229;52.354;20.886;2022-12-18T08:06:10;-4.50;99.90
18207;DHT22;9229;52.354;20.886;2022-12-18T08:11:12;-4.40;99.90
18207;DHT22;9229;52.354;20.886;2022-12-18T08:16:14;-4.40;99.90
18207;DHT22;9229;52.354;20.886;2022-12-18T08:21:19;-4.40;99.90
18207;DHT22;9229;52.354;20.886;2022-12-18T08:26:25;-4.40;99.90
18207;DHT22;9229;52.354;20.886;2022-12-18T08:31:28;-4.40;99.90
18207;DHT22;9229;52.354;20.886;2022-12-18T08:36:32;-4.40;99.90
18207;DHT22;9229;52.354;20.886;2022-12-18T08:41:34;-4.40;99.90
18207;DHT22;9229;52.354;20.886;2022-12-18T08:46:37;-4.30;99.90
18207;DHT22;9229;52.354;20.886;2022-12-18T08:51:40;-4.30;99.90
18207;DHT22;9229;52.354;20.886;2022-12-18T08:56:42;-4.30;99.90
18207;DHT22;9229;52.354;20.886;2022-12-18T09:01:45;-4.20;99.90
18207;DHT22;9229;52.354;20.886;2022-12-18T09:06:49;-4.10;99.90
18207;DHT22;9229;52.354;20.886;2022-12-18T09:11:52;-4.10;99.90
18207;DHT22;9229;52.354;20.886;2022-12-18T09:16:54;-4.00;99.90
18207;DHT22;9229;52.354;20.886;2022-12-18T09:21:57;-4.00;99.90
18207;DHT22;9229;52.354;20.886;2022-12-18T09:27:00;-3.90;99.90
18207;DHT22;9229;52.354;20.886;2022-12-18T09:32:02;-3.90;99.90
18207;DHT22;9229;52.354;20.886;2022-12-18T09:37:06;-3.80;99.90
18207;DHT22;9229;52.354;20.886;2022-12-18T09:42:17;-3.70;99.90
18207;DHT22;9229;52.354;20.886;2022-12-18T09:47:25;-3.60;99.90
18207;DHT22;9229;52.354;20.886;2022-12-18T09:52:33;-3.60;99.90
18207;DHT22;9229;52.354;20.886;2022-12-18T09:57:40;-3.60;99.90
18207;DHT22;9229;52.354;20.886;2022-12-18T10:02:44;-3.60;99.90
18207;DHT22;9229;52.354;20.886;2022-12-18T10:08:00;-3.50;99.90
18207;DHT22;9229;52.354;20.886;2022-12-18T10:13:18;-3.50;99.90
18207;DHT22;9229;52.354;20.886;2022-12-18T10:18:31;-3.40;99.90
18207;DHT22;9229;52.354;20.886;2022-12-18T10:23:42;-3.50;99.90
18207;DHT22;9229;52.354;20.886;2022-12-18T10:28:45;-3.50;99.90
18207;DHT22;9229;52.354;20.886;2022-12-18T10:33:47;-3.50;99.90
18207;DHT22;9229;52.354;20.886;2022-12-18T10:38:51;-3.40;99.90
18207;DHT22;9229;52.354;20.886;2022-12-18T10:44:12;-3.30;99.90
18207;DHT22;9229;52.354;20.886;2022-12-18T10:49:23;-3.20;99.90
18207;DHT22;9229;52.354;20.886;2022-12-18T10:54:28;-3.20;99.90
18207;DHT22;9229;52.354;20.886;2022-12-18T10:59:50;-3.10;99.90
18207;DHT22;9229;52.354;20.886;2022-12-18T11:04:53;-3.10;99.90
18207;DHT22;9229;52.354;20.886;2022-12-18T11:10:01;-3.00;99.90
18207;DHT22;9229;52.354;20.886;2022-12-18T11:15:03;-3.00;99.90
18207;DHT22;9229;52.354;20.886;2022-12-18T11:20:23;-3.00;99.90
18207;DHT22;9229;52.354;20.886;2022-12-18T11:25:31;-2.90;99.90
18207;DHT22;9229;52.354;20.886;2022-12-18T11:30:36;-2.80;99.90
18207;DHT22;9229;52.354;20.886;2022-12-18T11:35:42;-2.80;99.90
18207;DHT22;9229;52.354;20.886;2022-12-18T11:40:51;-2.70;99.90
18207;DHT22;9229;52.354;20.886;2022-12-18T11:45:59;-2.60;99.90
18207;DHT22;9229;52.354;20.886;2022-12-18T11:51:05;-2.60;99.90
18207;DHT22;9229;52.354;20.886;2022-12-18T11:56:26;-2.40;99.90
18207;DHT22;9229;52.354;20.886;2022-12-18T12:01:38;-2.50;99.90
18207;DHT22;9229;52.354;20.886;2022-12-18T12:06:49;-2.60;99.90
18207;DHT22;9229;52.354;20.886;2022-12-18T12:12:00;-2.50;99.90
18207;DHT22;9229;52.354;20.886;2022-12-18T12:17:11;-2.40;99.90
18207;DHT22;9229;52.354;20.886;2022-12-18T12:22:23;-2.30;99.90
18207;DHT22;9229;52.354;20.886;2022-12-18T12:27:37;-2.40;99.90
18207;DHT22;9229;52.354;20.886;2022-12-18T12:32:58;-2.40;99.90
18207;DHT22;9229;52.354;20.886;2022-12-18T12:38:08;-2.50;99.90
18207;DHT22;9229;52.354;20.886;2022-12-18T12:43:28;-2.60;99.90
18207;DHT22;9229;52.354;20.886;2022-12-18T12:48:41;-2.60;99.90
18207;DHT22;9229;52.354;20.886;2022-12-18T12:53:45;-2.50;99.90
18207;DHT22;9229;52.354;20.886;2022-12-18T12:58:55;-2.50;99.90
18207;DHT22;9229;52.354;20.886;2022-12-18T13:04:12;-2.50;99.90
18207;DHT22;9229;52.354;20.886;2022-12-18T13:09:16;-2.50;99.90
18207;DHT22;9229;52.354;20.886;2022-12-18T13:14:33;-2.60;99.90
18207;DHT22;9229;52.354;20.886;2022-12-18T13:19:36;-2.60;99.90
18207;DHT22;9229;52.354;20.886;2022-12-18T13:24:38;-2.60;99.90
18207;DHT22;9229;52.354;20.886;2022-12-18T13:29:43;-2.70;99.90
18207;DHT22;9229;52.354;20.886;2022-12-18T13:34:46;-2.70;99.90
18207;DHT22;9229;52.354;20.886;2022-12-18T13:39:47;-2.70;99.90
18207;DHT22;9229;52.354;20.886;2022-12-18T13:44:51;-2.70;99.90
18207;DHT22;9229;52.354;20.886;2022-12-18T13:49:53;-2.80;99.90
18207;DHT22;9229;52.354;20.886;2022-12-18T13:54:56;-2.80;99.90
18207;DHT22;9229;52.354;20.886;2022-12-18T14:00:22;-2.90;99.90
18207;DHT22;9229;52.354;20.886;2022-12-18T14:05:27;-3.00;99.90
18207;DHT22;9229;52.354;20.886;2022-12-18T14:10:30;-3.10;99.90
18207;DHT22;9229;52.354;20.886;2022-12-18T14:15:35;-3.10;99.90
18207;DHT22;9229;52.354;20.886;2022-12-18T14:20:43;-3.20;99.90
18207;DHT22;9229;52.354;20.886;2022-12-18T14:25:46;-3.20;99.90
18207;DHT22;9229;52.354;20.886;2022-12-18T14:30:50;-3.20;99.90
18207;DHT22;9229;52.354;20.886;2022-12-18T14:35:56;-3.20;99.90
18207;DHT22;9229;52.354;20.886;2022-12-18T14:40:59;-3.20;99.90
18207;DHT22;9229;52.354;20.886;2022-12-18T14:46:04;-3.30;99.90
18207;DHT22;9229;52.354;20.886;2022-12-18T14:51:15;-3.40;99.90
18207;DHT22;9229;52.354;20.886;2022-12-18T14:56:19;-3.40;99.90
18207;DHT22;9229;52.354;20.886;2022-12-18T15:01:28;-3.40;99.90
18207;DHT22;9229;52.354;20.886;2022-12-18T15:06:33;-3.50;99.90
18207;DHT22;9229;52.354;20.886;2022-12-18T15:11:44;-3.70;99.90
18207;DHT22;9229;52.354;20.886;2022-12-18T15:16:52;-3.70;99.90
18207;DHT22;9229;52.354;20.886;2022-12-18T15:21:54;-3.70;99.90
18207;DHT22;9229;52.354;20.886;2022-12-18T15:26:56;-3.70;99.90
18207;DHT22;9229;52.354;20.886;2022-12-18T15:32:01;-3.70;99.90
18207;DHT22;9229;52.354;20.886;2022-12-18T15:37:04;-3.70;99.90
18207;DHT22;9229;52.354;20.886;2022-12-18T15:42:08;-3.70;99.90
18207;DHT22;9229;52.354;20.886;2022-12-18T15:47:29;-3.80;99.90
18207;DHT22;9229;52.354;20.886;2022-12-18T15:52:36;-3.80;99.90
18207;DHT22;9229;52.354;20.886;2022-12-18T15:57:40;-3.80;99.90
18207;DHT22;9229;52.354;20.886;2022-12-18T16:02:43;-3.80;99.90
18207;DHT22;9229;52.354;20.886;2022-12-18T16:07:46;-3.70;99.90
18207;DHT22;9229;52.354;20.886;2022-12-18T16:12:48;-3.70;99.90
18207;DHT22;9229;52.354;20.886;2022-12-18T16:17:51;-3.70;99.90
18207;DHT22;9229;52.354;20.886;2022-12-18T16:22:53;-3.50;99.90
18207;DHT22;9229;52.354;20.886;2022-12-18T16:27:56;-3.80;99.90
18207;DHT22;9229;52.354;20.886;2022-12-18T16:32:59;-3.70;99.90
18207;DHT22;9229;52.354;20.886;2022-12-18T16:38:01;-3.70;99.90
18207;DHT22;9229;52.354;20.886;2022-12-18T16:43:03;-3.90;99.90
18207;DHT22;9229;52.354;20.886;2022-12-18T16:48:07;-3.80;99.90
18207;DHT22;9229;52.354;20.886;2022-12-18T16:53:09;-3.80;99.90
18207;DHT22;9229;52.354;20.886;2022-12-18T16:58:10;-3.80;99.90
18207;DHT22;9229;52.354;20.886;2022-12-18T17:03:16;-3.80;99.90
18207;DHT22;9229;52.354;20.886;2022-12-18T17:08:18;-3.80;99.90
18207;DHT22;9229;52.354;20.886;2022-12-18T17:13:21;-3.80;99.90
18207;DHT22;9229;52.354;20.886;2022-12-18T17:18:24;-3.90;99.90
18207;DHT22;9229;52.354;20.886;2022-12-18T17:23:28;-3.80;99.90
18207;DHT22;9229;52.354;20.886;2022-12-18T17:28:30;-3.80;99.90
18207;DHT22;9229;52.354;20.886;2022-12-18T17:33:34;-3.80;99.90
18207;DHT22;9229;52.354;20.886;2022-12-18T17:38:36;-3.80;99.90
18207;DHT22;9229;52.354;20.886;2022-12-18T17:43:39;-3.90;99.90
18207;DHT22;9229;52.354;20.886;2022-12-18T17:48:47;-3.90;99.90
18207;DHT22;9229;52.354;20.886;2022-12-18T17:53:49;-3.90;99.90
18207;DHT22;9229;52.354;20.886;2022-12-18T17:58:51;-4.00;99.90
18207;DHT22;9229;52.354;20.886;2022-12-18T18:03:56;-4.10;99.90
18207;DHT22;9229;52.354;20.886;2022-12-18T18:08:59;-4.10;99.90
18207;DHT22;9229;52.354;20.886;2022-12-18T18:14:03;-4.20;99.90
18207;DHT22;9229;52.354;20.886;2022-12-18T18:19:08;-4.10;99.90
18207;DHT22;9229;52.354;20.886;2022-12-18T18:24:12;-4.20;99.90
18207;DHT22;9229;52.354;20.886;2022-12-18T18:29:16;-4.20;99.90
18207;DHT22;9229;52.354;20.886;2022-12-18T18:34:22;-4.20;99.90
18207;DHT22;9229;52.354;20.886;2022-12-18T18:39:25;-4.20;99.90
18207;DHT22;9229;52.354;20.886;2022-12-18T18:44:27;-4.30;99.90
18207;DHT22;9229;52.354;20.886;2022-12-18T18:49:30;-4.30;99.90
18207;DHT22;9229;52.354;20.886;2022-12-18T18:54:32;-4.40;99.90
18207;DHT22;9229;52.354;20.886;2022-12-18T18:59:34;-4.50;99.90
18207;DHT22;9229;52.354;20.886;2022-12-18T19:04:37;-4.50;99.90
18207;DHT22;9229;52.354;20.886;2022-12-18T19:09:39;-4.60;99.90
18207;DHT22;9229;52.354;20.886;2022-12-18T19:14:42;-4.70;99.90
18207;DHT22;9229;52.354;20.886;2022-12-18T19:19:46;-4.80;99.90
18207;DHT22;9229;52.354;20.886;2022-12-18T19:24:48;-4.90;99.90
18207;DHT22;9229;52.354;20.886;2022-12-18T19:29:51;-4.90;99.90
18207;DHT22;9229;52.354;20.886;2022-12-18T19:34:54;-4.90;99.90
18207;DHT22;9229;52.354;20.886;2022-12-18T19:39:57;-4.90;99.90
18207;DHT22;9229;52.354;20.886;2022-12-18T19:44:58;-4.90;99.90
18207;DHT22;9229;52.354;20.886;2022-12-18T19:50:02;-5.00;99.90
18207;DHT22;9229;52.354;20.886;2022-12-18T19:55:05;-5.00;99.90
18207;DHT22;9229;52.354;20.886;2022-12-18T20:00:08;-5.00;99.90
18207;DHT22;9229;52.354;20.886;2022-12-18T20:05:14;-5.10;99.90
18207;DHT22;9229;52.354;20.886;2022-12-18T20:10:16;-5.10;99.90
18207;DHT22;9229;52.354;20.886;2022-12-18T20:15:18;-5.10;99.90
18207;DHT22;9229;52.354;20.886;2022-12-18T20:20:21;-5.10;99.90
18207;DHT22;9229;52.354;20.886;2022-12-18T20:25:23;-5.20;99.90
18207;DHT22;9229;52.354;20.886;2022-12-18T20:30:26;-5.30;99.90
18207;DHT22;9229;52.354;20.886;2022-12-18T20:35:32;-5.30;99.90
18207;DHT22;9229;52.354;20.886;2022-12-18T20:40:34;-5.30;99.90
18207;DHT22;9229;52.354;20.886;2022-12-18T20:45:36;-5.30;99.90
18207;DHT22;9229;52.354;20.886;2022-12-18T20:50:39;-5.30;99.90
18207;DHT22;9229;52.354;20.886;2022-12-18T20:55:42;-5.20;99.90
18207;DHT22;9229;52.354;20.886;2022-12-18T21:00:44;-5.20;99.90
18207;DHT22;9229;52.354;20.886;2022-12-18T21:05:49;-5.20;99.90
18207;DHT22;9229;52.354;20.886;2022-12-18T21:10:51;-5.20;99.90
18207;DHT22;9229;52.354;20.886;2022-12-18T21:15:53;-5.20;99.90
18207;DHT22;9229;52.354;20.886;2022-12-18T21:20:57;-5.10;99.90
18207;DHT22;9229;52.354;20.886;2022-12-18T21:26:14;-5.10;99.90
18207;DHT22;9229;52.354;20.886;2022-12-18T21:31:16;-5.10;99.90
18207;DHT22;9229;52.354;20.886;2022-12-18T21:36:19;-5.10;99.90
18207;DHT22;9229;52.354;20.886;2022-12-18T21:41:22;-5.10;99.90
18207;DHT22;9229;52.354;20.886;2022-12-18T21:46:44;-5.10;99.90
18207;DHT22;9229;52.354;20.886;2022-12-18T21:51:48;-5.10;99.90
18207;DHT22;9229;52.354;20.886;2022-12-18T21:56:51;-5.10;99.90
18207;DHT22;9229;52.354;20.886;2022-12-18T22:01:54;-5.20;99.90
18207;DHT22;9229;52.354;20.886;2022-12-18T22:06:58;-5.10;99.90
18207;DHT22;9229;52.354;20.886;2022-12-18T22:12:00;-5.20;99.90
18207;DHT22;9229;52.354;20.886;2022-12-18T22:17:02;-5.10;99.90
18207;DHT22;9229;52.354;20.886;2022-12-18T22:22:05;-5.20;99.90
18207;DHT22;9229;52.354;20.886;2022-12-18T22:27:08;-5.20;99.90
18207;DHT22;9229;52.354;20.886;2022-12-18T22:32:11;-5.10;99.90
18207;DHT22;9229;52.354;20.886;2022-12-18T22:37:17;-5.10;99.90
18207;DHT22;9229;52.354;20.886;2022-12-18T22:42:19;-5.20;99.90
18207;DHT22;9229;52.354;20.886;2022-12-18T22:47:20;-5.10;99.90
18207;DHT22;9229;52.354;20.886;2022-12-18T22:52:24;-5.10;99.90
18207;DHT22;9229;52.354;20.886;2022-12-18T22:57:26;-5.10;99.90
18207;DHT22;9229;52.354;20.886;2022-12-18T23:02:28;-5.10;99.90
18207;DHT22;9229;52.354;20.886;2022-12-18T23:07:31;-5.20;99.90
18207;DHT22;9229;52.354;20.886;2022-12-18T23:12:33;-5.20;99.90
18207;DHT22;9229;52.354;20.886;2022-12-18T23:17:38;-5.20;99.90
18207;DHT22;9229;52.354;20.886;2022-12-18T23:22:42;-5.20;99.90
18207;DHT22;9229;52.354;20.886;2022-12-18T23:27:44;-5.20;99.90
18207;DHT22;9229;52.354;20.886;2022-12-18T23:32:46;-5.20;99.90
18207;DHT22;9229;52.354;20.886;2022-12-18T23:37:50;-5.20;99.90
18207;DHT22;9229;52.354;20.886;2022-12-18T23:42:52;-5.20;99.90
18207;DHT22;9229;52.354;20.886;2022-12-18T23:47:54;-5.20;99.90
18207;DHT22;9229;52.354;20.886;2022-12-18T23:52:58;-5.20;99.90
18207;DHT22;9229;52.354;20.886;2022-12-18T23:58:00;-5.20;99.90
